Time;durP1;ratioP1;P1;durP2;ratioP2;P2;SDS_P1;SDS_P2;PMS_P1;PMS_P2;Temp;Humidity;BMP_temperature;BMP_pressure;BME280_temperature;BME280_humidity;BME280_pressure;Samples;Min_cycle;Max_cycle;Signal;HPM_P1;HPM_P2
2023/04/06 00:02:19;;;;;;;7.80;5.70;;;-1.40;83.10;-1.30;94076.00;;;;7400773;19;20144;-79
2023/04/06 00:04:53;;;;;;;7.37;5.57;;;-1.40;86.50;-1.20;94096.00;;;;7401860;19;20121;-79
2023/04/06 00:07:20;;;;;;;7.93;5.20;;;-1.40;86.70;-1.20;94134.00;;;;7404081;19;20144;-80
2023/04/06 00:09:54;;;;;;;6.83;4.73;;;-1.40;71.50;-1.20;94130.00;;;;7402665;19;20526;-79
2023/04/06 00:12:28;;;;;;;7.70;5.40;;;-1.40;78.40;-1.20;94083.00;;;;7404164;19;20143;-79
2023/04/06 00:15:05;;;;;;;8.60;5.67;;;-1.30;78.60;-1.30;94100.00;;;;7403681;19;20192;-79
2023/04/06 00:17:32;;;;;;;7.17;5.27;;;-1.40;87.80;-1.50;94084.00;;;;7401642;19;20136;-80
2023/04/06 00:20:06;;;;;;;7.17;5.23;;;-1.40;90.20;-1.30;94057.00;;;;7403022;19;20483;-79
2023/04/06 00:22:40;;;;;;;6.50;5.57;;;-1.50;95.60;-1.20;94067.00;;;;7401985;19;20129;-79
2023/04/06 00:25:09;;;;;;;10.47;5.63;;;-1.50;87.60;-1.10;94080.00;;;;7402600;19;20607;-80
2023/04/06 00:27:43;;;;;;;8.00;6.03;;;-1.40;77.50;-1.10;94085.00;;;;7400641;19;20140;-79
2023/04/06 00:30:19;;;;;;;11.17;5.67;;;-1.30;82.70;-1.00;94123.00;;;;7408328;19;20147;-80
2023/04/06 00:32:53;;;;;;;8.30;5.43;;;-1.30;68.80;-1.10;94098.00;;;;7408601;19;20133;-79
2023/04/06 00:35:27;;;;;;;8.20;5.13;;;-1.30;78.90;-1.10;94073.00;;;;7409300;19;20607;-81
2023/04/06 00:38:01;;;;;;;8.87;5.23;;;-1.30;99.90;-1.30;94049.00;;;;7407724;19;20189;-80
2023/04/06 00:40:28;;;;;;;9.33;5.90;;;-1.30;82.00;-1.20;94101.00;;;;7409672;19;20129;-79
2023/04/06 00:43:02;;;;;;;6.77;5.13;;;-1.40;87.70;-1.30;94056.00;;;;7409803;19;20132;-80
2023/04/06 00:45:29;;;;;;;7.20;5.70;;;-1.40;93.10;-1.20;94078.00;;;;7409356;19;20156;-80
2023/04/06 00:47:57;;;;;;;10.87;5.50;;;-1.40;99.90;-1.20;94031.00;;;;7407418;19;20588;-80
2023/04/06 00:50:31;;;;;;;9.70;5.97;;;-1.40;84.90;-1.10;94068.00;;;;7406993;19;20137;-82
2023/04/06 00:53:05;;;;;;;7.83;5.07;;;-1.40;78.90;-1.00;94070.00;;;;7404166;19;20183;-76
2023/04/06 00:55:46;;;;;;;8.43;5.60;;;-1.30;55.60;-1.30;94092.00;;;;7402928;19;20152;-77
2023/04/06 00:58:13;;;;;;;7.30;4.97;;;-1.30;65.40;-1.20;94056.00;;;;7402069;19;20129;-74
2023/04/06 01:00:47;;;;;;;8.73;5.13;;;-1.30;53.60;-1.30;94096.00;;;;7401792;19;20172;-74
2023/04/06 01:03:22;;;;;;;7.20;4.93;;;-1.30;57.10;-1.30;94022.00;;;;7402701;19;20541;-74
2023/04/06 01:05:58;;;;;;;9.40;6.03;;;-1.30;55.60;-1.30;94079.00;;;;7404990;19;20146;-74
2023/04/06 01:08:31;;;;;;;7.60;5.10;;;-1.30;53.30;-1.40;94063.00;;;;7402490;19;20132;-76
2023/04/06 01:11:05;;;;;;;8.67;5.60;;;-1.40;67.00;-1.40;94020.00;;;;7403457;19;20137;-75
2023/04/06 01:13:33;;;;;;;7.43;5.53;;;-1.40;60.60;-1.30;94089.00;;;;7405274;19;20145;-76
2023/04/06 01:16:07;;;;;;;7.67;5.50;;;-1.40;66.00;-1.30;94059.00;;;;7402773;19;20149;-74
2023/04/06 01:18:42;;;;;;;8.37;5.33;;;-1.40;73.90;-1.30;94036.00;;;;7401983;19;20469;-75
2023/04/06 01:21:15;;;;;;;9.10;5.73;;;-1.40;69.00;-1.40;94070.00;;;;7393049;19;20503;-75
2023/04/06 01:23:48;;;;;;;7.67;5.53;;;-1.40;71.40;-1.50;94073.00;;;;7402154;19;20145;-75
2023/04/06 01:26:22;;;;;;;7.20;5.20;;;-1.40;90.80;-1.10;94087.00;;;;7402701;19;20152;-73
2023/04/06 01:28:56;;;;;;;8.20;5.50;;;-1.30;54.80;-1.30;94049.00;;;;7404697;19;20129;-77
2023/04/06 01:31:30;;;;;;;10.37;5.53;;;-1.40;58.10;-1.30;94042.00;;;;7402698;19;20745;-74
2023/04/06 01:34:04;;;;;;;8.40;5.30;;;-1.30;57.70;-1.20;94082.00;;;;7401800;19;20160;-74
2023/04/06 01:36:38;;;;;;;6.87;5.30;;;-1.30;50.50;-1.40;94072.00;;;;7402685;19;20617;-75
2023/04/06 01:39:15;;;;;;;8.63;5.47;;;-1.40;59.70;-1.40;94053.00;;;;7399678;19;20162;-74
2023/04/06 01:41:49;;;;;;;8.70;4.93;;;-1.40;69.80;-1.40;94014.00;;;;7404217;19;20129;-75
2023/04/06 01:44:18;;;;;;;8.80;5.47;;;-1.50;71.00;-1.20;94070.00;;;;7402571;19;20453;-76
2023/04/06 01:46:52;;;;;;;5.60;4.70;;;-1.40;63.00;-1.20;94073.00;;;;7401996;19;20580;-76
2023/04/06 01:49:26;;;;;;;7.70;5.17;;;-1.40;64.90;-1.30;94070.00;;;;7404155;19;20154;-74
2023/04/06 01:52:00;;;;;;;11.57;5.20;;;-1.40;73.20;-1.20;94028.00;;;;7404096;19;20144;-74
2023/04/06 01:54:41;;;;;;;8.83;5.47;;;-1.40;65.80;-1.30;94070.00;;;;7401029;19;20152;-75
2023/04/06 01:57:10;;;;;;;9.50;5.20;;;-1.40;69.50;-1.20;94072.00;;;;7401231;19;20129;-74
2023/04/06 01:59:43;;;;;;;7.63;5.47;;;-1.40;60.30;-1.30;94053.00;;;;7401241;19;20132;-74
2023/04/06 02:02:12;;;;;;;7.67;4.93;;;-1.40;61.10;-1.30;94044.00;;;;7400747;19;20172;-74
2023/04/06 02:04:53;;;;;;;9.03;5.73;;;-1.40;64.30;-1.20;94054.00;;;;7401693;19;20622;-74
2023/04/06 02:07:27;;;;;;;8.87;5.10;;;-1.40;57.10;-1.20;94045.00;;;;7401375;19;20125;-74
2023/04/06 02:10:03;;;;;;;9.47;5.07;;;-1.40;70.90;-1.10;94050.00;;;;7401275;19;20172;-75
2023/04/06 02:12:30;;;;;;;6.47;4.93;;;-1.30;63.00;-1.10;94064.00;;;;7400941;19;20528;-75
2023/04/06 02:15:04;;;;;;;10.23;5.40;;;-1.30;61.10;-1.20;94026.00;;;;7400684;19;20172;-74
2023/04/06 02:17:31;;;;;;;8.00;5.50;;;-1.40;66.90;-1.00;94027.00;;;;7401923;19;20161;-74
2023/04/06 02:20:05;;;;;;;9.07;5.70;;;-1.30;56.90;-0.90;94059.00;;;;7398896;19;20140;-74
2023/04/06 02:22:32;;;;;;;8.03;5.60;;;-1.20;58.70;-1.10;94059.00;;;;7400134;19;20133;-74
2023/04/06 02:25:07;;;;;;;7.87;5.50;;;-1.20;70.30;-0.90;94025.00;;;;7402593;19;20137;-75
2023/04/06 02:27:35;;;;;;;9.87;5.63;;;-1.20;58.10;-0.80;94060.00;;;;7402109;19;20175;-74
2023/04/06 02:30:10;;;;;;;8.17;6.00;;;-1.10;60.30;-0.40;94013.00;;;;7400798;19;20176;-74
2023/04/06 02:32:43;;;;;;;7.27;5.33;;;-1.00;37.80;-0.40;94023.00;;;;7396101;19;20155;-73
2023/04/06 02:35:18;;;;;;;7.23;4.73;;;-0.90;32.30;-0.60;94070.00;;;;7400398;19;20482;-74
2023/04/06 02:37:45;;;;;;;7.33;5.47;;;-0.90;27.80;-0.80;93994.00;;;;7401291;19;20142;-73
2023/04/06 02:40:18;;;;;;;7.70;5.70;;;-0.80;24.10;-0.60;93997.00;;;;7398388;19;20474;-74
2023/04/06 02:42:45;;;;;;;9.03;5.90;;;-0.80;21.00;-0.90;94062.00;;;;7401381;19;20150;-78
2023/04/06 02:45:20;;;;;;;9.87;5.60;;;-0.80;30.60;-1.20;94035.00;;;;7399161;19;20145;-76
2023/04/06 02:47:47;;;;;;;9.53;5.60;;;-1.00;38.90;-1.30;94053.00;;;;7399428;19;20215;-73
2023/04/06 02:50:20;;;;;;;11.53;6.53;;;-1.20;52.10;-1.00;94063.00;;;;7398527;19;20120;-74
2023/04/06 02:52:55;;;;;;;6.87;5.30;;;-1.20;45.60;-1.00;94024.00;;;;7399103;19;20136;-75
2023/04/06 02:55:41;;;;;;;8.33;5.73;;;-1.20;44.10;-1.10;94017.00;;;;7400392;19;20153;-74
2023/04/06 02:58:08;;;;;;;8.83;5.57;;;-1.20;56.40;-1.00;94002.00;;;;7400182;19;20167;-73
2023/04/06 03:00:42;;;;;;;8.90;5.53;;;-1.20;43.20;-0.90;94019.00;;;;7398281;19;20164;-75
2023/04/06 03:03:10;;;;;;;9.30;5.73;;;-1.20;62.70;-1.10;94004.00;;;;7399467;19;20592;-74
2023/04/06 03:05:43;;;;;;;8.60;6.07;;;-1.20;34.90;-1.00;94051.00;;;;7401072;19;20133;-74
2023/04/06 03:08:10;;;;;;;6.07;4.97;;;-1.20;53.00;-0.90;94049.00;;;;7398537;19;20220;-74
2023/04/06 03:10:44;;;;;;;6.60;5.37;;;-1.20;35.00;-0.80;94042.00;;;;7398496;19;20619;-73
2023/04/06 03:13:18;;;;;;;7.60;5.40;;;-1.20;45.50;-1.00;94048.00;;;;7397725;19;20156;-75
2023/04/06 03:15:52;;;;;;;7.80;5.63;;;-1.20;46.10;-1.00;93985.00;;;;7399751;19;20599;-74
2023/04/06 03:18:26;;;;;;;10.33;6.20;;;-1.20;47.20;-1.10;94042.00;;;;7399414;19;20133;-75
2023/04/06 03:20:55;;;;;;;6.77;5.03;;;-1.20;53.40;-1.20;94056.00;;;;7397064;19;20132;-75
2023/04/06 03:23:29;;;;;;;8.53;5.53;;;-1.20;56.10;-1.00;94038.00;;;;7399511;19;20152;-75
2023/04/06 03:25:57;;;;;;;8.77;5.70;;;;;-0.90;94043.00;;;;7397464;19;20148;-73
2023/04/06 03:28:25;;;;;;;7.30;5.30;;;;;-1.00;94051.00;;;;7399344;19;20135;-76
2023/04/06 03:30:58;;;;;;;7.47;5.40;;;-1.10;99.90;-0.90;93972.00;;;;7395302;19;20153;-74
2023/04/06 03:33:32;;;;;;;7.80;5.63;;;-1.10;24.70;-0.80;94043.00;;;;7397651;19;20168;-74
2023/04/06 03:36:00;;;;;;;8.20;5.60;;;-1.10;34.00;-0.80;94051.00;;;;7397106;19;20576;-73
2023/04/06 03:38:33;;;;;;;10.50;5.77;;;-1.10;23.90;-0.80;94032.00;;;;7396929;19;20164;-77
2023/04/06 03:41:01;;;;;;;7.47;5.60;;;-1.10;28.50;-0.60;94039.00;;;;7399302;19;20147;-75
2023/04/06 03:43:34;;;;;;;7.70;5.37;;;-1.10;24.40;-0.80;93999.00;;;;7398326;19;20149;-74
2023/04/06 03:46:02;;;;;;;10.43;5.77;;;-1.00;26.00;-0.80;94049.00;;;;7397315;19;20488;-76
2023/04/06 03:48:36;;;;;;;10.63;5.87;;;-1.10;22.10;-0.90;93998.00;;;;7397244;19;20170;-76
2023/04/06 03:51:04;;;;;;;7.33;5.50;;;-1.10;24.50;-0.90;94025.00;;;;7398558;19;20137;-76
2023/04/06 03:53:44;;;;;;;8.50;5.93;;;-1.10;26.00;-1.30;94053.00;;;;7397466;19;20152;-74
2023/04/06 03:56:12;;;;;;;9.50;5.37;;;-1.20;36.60;-1.20;94045.00;;;;7399116;19;20132;-73
2023/04/06 03:58:49;;;;;;;7.73;5.20;;;-1.30;35.20;-1.20;94000.00;;;;7398851;19;20125;-74
2023/04/06 04:01:19;;;;;;;12.10;6.20;;;-1.30;33.80;-1.30;94005.00;;;;7397755;19;20145;-74
2023/04/06 04:03:53;;;;;;;9.20;5.93;;;-1.30;35.30;-1.10;94029.00;;;;7397681;19;20483;-75
2023/04/06 04:06:27;;;;;;;9.60;5.13;;;-1.40;44.50;-1.20;94064.00;;;;7398222;19;20140;-75
2023/04/06 04:09:02;;;;;;;8.47;5.67;;;-1.40;52.20;-1.10;94067.00;;;;7396748;19;20144;-76
2023/04/06 04:11:36;;;;;;;9.50;5.27;;;-1.40;45.80;-0.90;94054.00;;;;7397181;19;20643;-77
2023/04/06 04:14:09;;;;;;;9.27;5.93;;;-1.30;34.50;-0.40;94060.00;;;;7398777;19;20591;-76
2023/04/06 04:16:39;;;;;;;8.37;5.43;;;-1.10;21.90;-0.40;94007.00;;;;7398277;19;20129;-74
2023/04/06 04:19:12;;;;;;;9.27;5.77;;;-1.00;17.30;-0.20;94061.00;;;;7395958;19;20133;-73
2023/04/06 04:21:45;;;;;;;7.37;5.43;;;-0.80;8.80;0.20;94002.00;;;;7396761;19;20616;-74
2023/04/06 04:24:18;;;;;;;9.97;5.40;;;-0.60;1.00;0.00;94026.00;;;;7396336;19;20163;-74
2023/04/06 04:26:45;;;;;;;9.37;5.60;;;-0.40;1.00;-0.10;94076.00;;;;7396323;19;20141;-74
2023/04/06 04:29:21;;;;;;;10.53;5.40;;;-0.30;1.00;-0.30;94073.00;;;;7396286;19;20183;-74
2023/04/06 04:31:49;;;;;;;7.90;5.20;;;-0.40;1.00;-0.20;94051.00;;;;7391540;19;20144;-77
2023/04/06 04:34:24;;;;;;;7.70;5.43;;;-0.40;1.00;-0.20;94061.00;;;;7395864;19;20151;-75
2023/04/06 04:36:52;;;;;;;8.17;5.13;;;-0.40;1.00;-0.40;94069.00;;;;7397254;19;20592;-75
2023/04/06 04:39:26;;;;;;;8.60;5.70;;;-0.50;1.00;-0.20;94062.00;;;;7394633;19;20196;-77
2023/04/06 04:42:00;;;;;;;7.17;5.13;;;-0.50;1.00;-0.40;94054.00;;;;7397487;19;20160;-75
2023/04/06 04:44:36;;;;;;;6.87;5.47;;;-0.50;1.00;-0.30;93986.00;;;;7394359;19;20141;-74
2023/04/06 04:47:04;;;;;;;5.30;4.63;;;-0.50;1.00;-0.30;94069.00;;;;7396268;19;20231;-75
2023/04/06 04:49:40;;;;;;;8.30;5.27;;;-0.50;1.00;-0.10;94066.00;;;;7396484;19;20144;-77
2023/04/06 04:52:07;;;;;;;9.57;5.30;;;-0.40;1.00;0.00;94069.00;;;;7396889;19;20129;-74
2023/04/06 04:54:53;;;;;;;10.03;5.80;;;-0.40;1.00;0.40;94053.00;;;;7391817;19;20133;-74
2023/04/06 04:57:27;;;;;;;8.03;5.67;;;-0.20;1.00;0.30;94040.00;;;;7395535;19;20131;-75
2023/04/06 05:00:05;;;;;;;7.37;5.00;;;-0.10;1.00;0.10;94074.00;;;;7392427;19;20615;-74
2023/04/06 05:02:32;;;;;;;8.53;5.40;;;-0.10;1.00;0.20;94053.00;;;;7394829;19;20144;-76
2023/04/06 05:05:06;;;;;;;10.00;5.70;;;-0.10;1.00;0.20;94035.00;;;;7395524;19;20166;-75
2023/04/06 05:07:34;;;;;;;8.17;5.37;;;0.00;1.00;0.20;94043.00;;;;7396469;19;20639;-75
2023/04/06 05:10:01;;;;;;;8.63;5.43;;;0.00;1.00;0.10;94038.00;;;;7395528;19;20627;-75
2023/04/06 05:12:35;;;;;;;8.43;5.07;;;0.00;1.00;0.10;94060.00;;;;7394887;19;20164;-77
2023/04/06 05:15:02;;;;;;;7.97;5.50;;;-0.10;1.00;0.00;94036.00;;;;7394738;19;20133;-75
2023/04/06 05:17:37;;;;;;;9.77;5.47;;;-0.10;1.00;0.10;94078.00;;;;7402356;19;20145;-75
2023/04/06 05:20:06;;;;;;;8.10;5.70;;;-0.10;1.00;0.10;94084.00;;;;7402806;19;20137;-75
2023/04/06 05:22:39;;;;;;;9.83;5.63;;;-0.10;1.00;0.00;94060.00;;;;7398047;19;20155;-74
2023/04/06 05:25:14;;;;;;;9.27;5.13;;;-0.10;1.00;-0.10;94063.00;;;;7402584;19;20137;-75
2023/04/06 05:27:48;;;;;;;8.07;5.20;;;-0.20;1.00;0.00;94070.00;;;;7402791;19;20595;-73
2023/04/06 05:30:23;;;;;;;9.87;5.30;;;-0.20;1.00;0.10;94041.00;;;;7402032;19;20144;-76
2023/04/06 05:32:50;;;;;;;7.37;5.00;;;-0.10;1.00;0.10;94068.00;;;;7402101;19;20212;-75
2023/04/06 05:35:24;;;;;;;6.87;4.97;;;-0.10;1.00;0.20;94098.00;;;;7403376;19;20191;-75
2023/04/06 05:37:52;;;;;;;10.17;5.30;;;-0.10;1.00;0.20;94056.00;;;;7401571;19;20654;-75
2023/04/06 05:40:25;;;;;;;7.80;5.07;;;-0.10;1.00;0.30;94094.00;;;;7400952;19;20151;-75
2023/04/06 05:42:53;;;;;;;7.37;4.97;;;0.00;1.00;0.50;94030.00;;;;7402786;19;20205;-75
2023/04/06 05:45:26;;;;;;;8.07;5.17;;;0.10;1.00;0.50;94056.00;;;;7401637;19;20594;-75
2023/04/06 05:47:54;;;;;;;8.47;5.00;;;0.20;1.00;0.70;94072.00;;;;7401169;19;20627;-75
2023/04/06 05:50:28;;;;;;;8.07;5.03;;;0.30;1.00;0.80;94056.00;;;;7401828;19;20159;-76
2023/04/06 05:52:55;;;;;;;6.37;4.90;;;0.40;1.00;0.90;94062.00;;;;7400578;19;20152;-75
2023/04/06 05:55:29;;;;;;;6.80;4.60;;;0.50;1.00;1.00;94034.00;;;;7385346;19;20157;-75
2023/04/06 05:58:10;;;;;;;7.53;4.87;;;0.60;1.00;1.30;94069.00;;;;7376170;19;20198;-74
2023/04/06 06:00:49;;;;;;;6.90;4.77;;;0.70;1.00;1.40;94074.00;;;;7384484;19;20182;-74
2023/04/06 06:03:23;;;;;;;8.50;4.77;;;0.80;1.00;1.50;94031.00;;;;7386356;19;20160;-75
2023/04/06 06:05:51;;;;;;;6.43;4.53;;;0.90;1.00;1.60;94032.00;;;;7384973;19;20148;-74
2023/04/06 06:08:25;;;;;;;7.37;4.97;;;1.10;1.00;1.80;94108.00;;;;7385626;19;20537;-80
2023/04/06 06:10:52;;;;;;;7.70;4.53;;;1.20;1.00;2.00;94107.00;;;;7386773;19;20132;-75
2023/04/06 06:13:27;;;;;;;7.00;4.63;;;1.30;1.00;2.30;94084.00;;;;7386285;19;20447;-75
2023/04/06 06:16:04;;;;;;;7.13;4.73;;;1.50;1.00;2.60;94114.00;;;;7384886;19;20152;-75
2023/04/06 06:18:32;;;;;;;8.33;4.73;;;1.70;1.00;2.70;94102.00;;;;7385500;19;20148;-74
2023/04/06 06:21:07;;;;;;;6.83;4.57;;;1.90;1.00;2.80;94109.00;;;;7384022;19;20524;-73
2023/04/06 06:23:37;;;;;;;9.00;5.07;;;2.00;1.00;3.00;94085.00;;;;7380101;19;20160;-75
2023/04/06 06:26:05;;;;;;;5.30;4.40;;;2.10;1.00;3.30;94053.00;;;;7383736;19;20148;-73
2023/04/06 06:28:39;;;;;;;5.80;4.37;;;2.40;1.00;3.70;94074.00;;;;7385524;19;20212;-74
2023/04/06 06:31:06;;;;;;;6.77;4.40;;;2.60;1.00;4.20;94114.00;;;;7385353;19;20141;-73
2023/04/06 06:33:41;;;;;;;7.33;5.20;;;2.80;1.00;4.90;94058.00;;;;7384895;19;20144;-74
2023/04/06 06:36:09;;;;;;;6.07;4.73;;;3.10;1.00;5.30;94076.00;;;;7384456;19;20604;-75
2023/04/06 06:38:45;;;;;;;6.77;4.60;;;3.40;1.00;5.80;94100.00;;;;7384904;19;20673;-75
2023/04/06 06:41:12;;;;;;;6.20;4.57;;;3.60;1.00;6.30;94072.00;;;;7383810;19;20148;-74
2023/04/06 06:43:46;;;;;;;7.77;5.47;;;3.90;1.00;6.80;94092.00;;;;7384555;19;20155;-75
2023/04/06 06:46:14;;;;;;;8.07;5.60;;;4.20;1.00;6.30;94124.00;;;;7384680;19;20559;-74
2023/04/06 06:48:48;;;;;;;9.10;6.03;;;4.50;1.00;6.70;94120.00;;;;7383859;19;20148;-75
2023/04/06 06:51:15;;;;;;;8.30;6.00;;;4.70;1.00;6.20;94072.00;;;;7385305;19;20137;-75
2023/04/06 06:53:45;;;;;;;7.20;5.50;;;5.00;1.00;6.70;94122.00;;;;7383805;19;20170;-75
2023/04/06 06:56:27;;;;;;;10.10;5.70;;;5.20;1.00;7.20;94119.00;;;;7383272;19;20149;-75
2023/04/06 06:59:02;;;;;;;8.87;5.77;;;5.30;1.00;7.40;94083.00;;;;7383821;19;21747;-75
2023/04/06 07:01:37;;;;;;;7.30;5.60;;;5.50;1.00;7.50;94123.00;;;;7383140;19;20163;-75
2023/04/06 07:04:07;;;;;;;9.10;5.70;;;5.60;1.00;7.50;94108.00;;;;7384431;19;20151;-74
2023/04/06 07:06:43;;;;;;;9.50;5.53;;;5.80;1.00;7.80;94109.00;;;;7383125;19;20203;-74
2023/04/06 07:09:11;;;;;;;9.87;5.87;;;5.80;1.00;7.70;94119.00;;;;7383797;19;20176;-74
2023/04/06 07:11:45;;;;;;;7.37;5.00;;;6.00;1.00;7.60;94107.00;;;;7383840;19;20133;-75
2023/04/06 07:14:12;;;;;;;11.67;6.23;;;6.10;1.00;7.80;94108.00;;;;7384177;19;20144;-74
2023/04/06 07:16:46;;;;;;;7.00;5.23;;;6.10;1.00;7.50;94090.00;;;;7385097;19;20148;-75
2023/04/06 07:19:14;;;;;;;7.77;5.43;;;6.20;1.00;7.90;94060.00;;;;7385024;19;20146;-74
2023/04/06 07:21:49;;;;;;;7.33;5.33;;;6.40;1.00;8.40;94113.00;;;;7382255;19;20148;-74
2023/04/06 07:24:17;;;;;;;6.93;5.20;;;6.60;1.00;8.60;94066.00;;;;7382893;19;20164;-75
2023/04/06 07:26:51;;;;;;;7.77;5.43;;;6.90;1.00;9.30;94097.00;;;;7382587;19;20165;-75
2023/04/06 07:29:25;;;;;;;9.03;6.00;;;7.10;1.00;9.50;94085.00;;;;7383746;19;20156;-75
2023/04/06 07:31:59;;;;;;;6.43;5.30;;;7.30;1.00;9.70;94091.00;;;;7380703;19;20165;-75
2023/04/06 07:34:33;;;;;;;8.88;5.78;;;7.40;1.00;10.00;94106.00;;;;7383862;19;20136;-72
2023/04/06 07:37:08;;;;;;;6.90;5.30;;;7.50;1.00;9.80;94131.00;;;;7376841;19;20144;-75
2023/04/06 07:39:36;;;;;;;9.88;5.55;;;7.80;1.00;9.60;94120.00;;;;7384852;19;20129;-72
2023/04/06 07:42:11;;;;;;;6.22;5.20;;;7.90;1.00;9.70;94121.00;;;;7382961;19;20136;-74
2023/04/06 07:44:39;;;;;;;6.88;4.80;;;7.80;1.00;9.30;94102.00;;;;7384754;19;20144;-73
2023/04/06 07:47:13;;;;;;;8.82;5.93;;;7.80;1.00;10.10;94133.00;;;;7383672;19;20219;-75
2023/04/06 07:49:41;;;;;;;8.52;5.57;;;8.00;1.00;10.00;94091.00;;;;7383023;19;20140;-76
2023/04/06 07:52:15;;;;;;;7.22;4.90;;;7.90;1.00;9.70;94069.00;;;;7383601;19;20658;-77
2023/04/06 07:55:01;;;;;;;7.78;5.60;;;8.00;1.00;9.90;94094.00;;;;7383779;19;20534;-73
2023/04/06 07:57:35;;;;;;;7.45;5.30;;;8.20;1.00;10.00;94122.00;;;;7382458;19;20148;-74
2023/04/06 08:00:11;;;;;;;6.35;5.20;;;8.30;1.00;9.90;94139.00;;;;7381871;19;20172;-73
2023/04/06 08:02:45;;;;;;;8.35;5.35;;;8.40;1.00;9.90;94090.00;;;;7382203;19;20156;-73
2023/04/06 08:05:13;;;;;;;6.53;4.97;;;8.50;1.00;10.50;94145.00;;;;7384216;19;20149;-75
2023/04/06 08:07:47;;;;;;;6.07;5.47;;;8.70;1.00;11.10;94146.00;;;;7383117;19;20149;-74
2023/04/06 08:10:23;;;;;;;7.03;5.55;;;8.70;1.00;11.50;94144.00;;;;7382423;19;20144;-74
2023/04/06 08:12:52;;;;;;;6.70;5.50;;;8.70;1.00;11.70;94141.00;;;;7383478;19;20133;-74
2023/04/06 08:15:26;;;;;;;7.13;5.38;;;8.60;1.00;11.80;94133.00;;;;7382335;19;20165;-74
2023/04/06 08:17:57;;;;;;;6.82;5.10;;;8.80;1.00;12.00;94138.00;;;;7380572;19;20152;-74
2023/04/06 08:20:31;;;;;;;13.90;5.68;;;8.90;1.00;11.30;94123.00;;;;7377936;19;20631;-74
2023/04/06 08:22:59;;;;;;;9.02;5.82;;;9.10;1.00;11.80;94104.00;;;;7383132;19;20153;-74
2023/04/06 08:25:35;;;;;;;6.90;5.22;;;9.10;1.00;11.90;94130.00;;;;7383250;19;20226;-75
2023/04/06 08:28:09;;;;;;;7.65;5.35;;;8.90;1.00;11.60;94097.00;;;;7383821;19;20208;-74
2023/04/06 08:30:43;;;;;;;5.90;4.78;;;9.10;1.00;11.70;94067.00;;;;7380978;19;20152;-75
2023/04/06 08:33:17;;;;;;;5.90;4.70;;;9.10;1.00;11.40;94105.00;;;;7378434;19;20170;-75
2023/04/06 08:35:51;;;;;;;6.88;5.55;;;9.00;1.00;11.40;94121.00;;;;7379821;19;20156;-74
2023/04/06 08:38:25;;;;;;;8.00;5.88;;;9.30;1.00;11.40;94097.00;;;;7379056;19;20140;-75
2023/04/06 08:40:52;;;;;;;5.90;4.90;;;9.60;1.00;12.50;94112.00;;;;7379504;19;20155;-74
2023/04/06 08:43:28;;;;;;;6.68;4.72;;;9.80;1.00;12.40;94135.00;;;;7378942;19;20488;-74
2023/04/06 08:46:04;;;;;;;6.80;4.95;;;10.00;1.00;12.50;94103.00;;;;7380297;19;20154;-74
2023/04/06 08:48:42;;;;;;;5.95;5.07;;;9.90;1.00;12.00;94139.00;;;;7380556;19;20132;-75
2023/04/06 08:51:19;;;;;;;5.97;5.00;;;9.90;1.00;12.20;94140.00;;;;7388925;19;20148;-74
2023/04/06 08:53:48;;;;;;;8.18;5.70;;;9.90;1.00;12.50;94103.00;;;;7388895;19;20148;-74
2023/04/06 08:56:29;;;;;;;8.82;5.70;;;10.10;1.00;13.10;94135.00;;;;7388748;19;20133;-74
2023/04/06 08:58:58;;;;;;;6.82;5.30;;;10.20;1.00;12.40;94124.00;;;;7389743;19;20145;-73
2023/04/06 09:01:41;;;;;;;6.60;5.95;;;10.30;1.00;12.50;94128.00;;;;7389676;19;20521;-74
2023/04/06 09:04:15;;;;;;;7.40;5.50;;;10.30;1.00;12.10;94138.00;;;;7382950;19;20470;-75
2023/04/06 09:06:49;;;;;;;8.65;5.85;;;10.00;1.00;11.60;94130.00;;;;7389592;19;20148;-73
2023/04/06 09:09:24;;;;;;;7.10;5.90;;;10.00;1.00;11.90;94105.00;;;;7389254;19;20149;-74
2023/04/06 09:11:53;;;;;;;8.73;4.95;;;10.00;1.00;12.60;94133.00;;;;7391106;19;20149;-73
2023/04/06 09:14:38;;;;;;;7.07;5.15;;;10.00;1.00;12.20;94139.00;;;;7389485;19;20156;-73
2023/04/06 09:17:06;;;;;;;8.38;5.47;;;10.10;1.00;12.80;94141.00;;;;7387000;19;20145;-74
2023/04/06 09:19:47;;;;;;;8.02;5.97;;;10.60;1.00;13.40;94138.00;;;;7388598;19;20642;-74
2023/04/06 09:22:15;;;;;;;9.57;5.97;;;10.80;1.00;13.10;94112.00;;;;7386833;19;20148;-74
2023/04/06 09:24:53;;;;;;;9.20;6.82;;;10.90;1.00;13.50;94142.00;;;;7388132;19;20144;-73
2023/04/06 09:27:36;;;;;;;10.82;6.78;;;11.10;1.00;13.40;94109.00;;;;7388004;19;20145;-74
2023/04/06 09:30:13;;;;;;;8.02;7.13;;;11.30;1.00;13.70;94127.00;;;;7388973;19;20616;-74
2023/04/06 09:32:50;;;;;;;10.40;8.82;;;11.60;1.00;14.20;94133.00;;;;7388556;19;20176;-74
2023/04/06 09:35:26;;;;;;;12.10;8.23;;;11.60;1.00;13.60;94103.00;;;;7386651;19;20144;-73
2023/04/06 09:37:55;;;;;;;8.85;7.90;;;11.40;1.00;13.60;94099.00;;;;7387254;19;20499;-74
2023/04/06 09:40:24;;;;;;;11.07;7.50;;;11.70;1.00;13.20;94131.00;;;;7387380;19;20224;-77
2023/04/06 09:42:59;;;;;;;9.00;6.38;;;11.70;1.00;13.40;94142.00;;;;7389817;19;20665;-74
2023/04/06 09:45:30;;;;;;;10.95;6.55;;;11.70;1.00;13.60;94114.00;;;;7388185;19;20149;-73
2023/04/06 09:48:05;;;;;;;8.80;6.80;;;11.70;1.00;13.00;94109.00;;;;7386751;19;20168;-74
2023/04/06 09:50:40;;;;;;;7.72;6.70;;;12.00;1.00;14.40;94112.00;;;;7386496;19;20183;-72
2023/04/06 09:53:08;;;;;;;8.40;5.90;;;12.40;1.00;15.10;94102.00;;;;7386940;19;20152;-75
2023/04/06 09:55:45;;;;;;;9.02;6.30;;;12.70;1.00;15.50;94126.00;;;;7386516;19;20169;-75
2023/04/06 09:58:29;;;;;;;8.27;6.50;;;13.10;1.00;14.80;94125.00;;;;7386901;19;20148;-75
2023/04/06 10:01:12;;;;;;;8.38;6.30;;;13.30;1.00;14.80;94122.00;;;;7384948;19;20204;-74
2023/04/06 10:04:17;;;;;;;9.85;5.85;;;13.10;1.00;14.90;94129.00;;;;7386955;19;20144;-75
2023/04/06 10:06:52;;;;;;;6.88;5.85;;;13.20;1.00;15.10;94133.00;;;;7386891;19;20141;-74
2023/04/06 10:09:31;;;;;;;8.77;6.32;;;13.30;1.00;14.10;94104.00;;;;7387854;19;20128;-73
2023/04/06 10:12:06;;;;;;;6.38;5.63;;;13.10;1.00;13.20;94113.00;;;;7388793;19;20224;-73
2023/04/06 10:14:42;;;;;;;6.63;5.28;;;13.40;1.00;12.40;94125.00;;;;7387157;19;20152;-73
2023/04/06 10:17:18;;;;;;;8.38;5.28;;;13.10;1.00;13.70;94129.00;;;;7386518;19;20148;-73
2023/04/06 10:20:10;;;;;;;6.20;5.55;;;12.90;1.00;14.20;94128.00;;;;7386784;19;20475;-74
2023/04/06 10:23:16;;;;;;;7.68;5.43;;;12.50;1.00;14.00;94130.00;;;;7389965;19;20581;-73
2023/04/06 10:25:59;;;;;;;6.68;5.40;;;12.40;1.00;14.80;94122.00;;;;7388715;19;20208;-73
2023/04/06 10:28:35;;;;;;;6.85;5.63;;;12.40;1.00;14.50;94130.00;;;;7389280;19;20129;-74
2023/04/06 10:31:10;;;;;;;6.85;4.78;;;12.30;1.00;14.70;94101.00;;;;7387413;19;20153;-73
2023/04/06 10:33:40;;;;;;;7.68;5.50;;;12.90;1.00;15.20;94116.00;;;;7386351;19;20160;-73
2023/04/06 10:36:23;;;;;;;6.93;5.75;;;13.50;1.00;15.80;94088.00;;;;7386851;19;20590;-73
2023/04/06 10:39:03;;;;;;;5.85;5.10;;;13.90;1.00;16.40;94107.00;;;;7386726;19;20192;-74
2023/04/06 10:41:43;;;;;;;7.65;5.40;;;14.20;1.00;15.40;94132.00;;;;7386088;19;20148;-73
2023/04/06 10:44:24;;;;;;;6.07;5.47;;;14.30;1.00;16.20;94110.00;;;;7388354;19;20133;-74
2023/04/06 10:47:02;;;;;;;8.52;5.50;;;14.60;1.00;15.60;94114.00;;;;7385958;19;20141;-74
2023/04/06 10:49:30;;;;;;;6.88;5.50;;;14.70;1.00;15.90;94120.00;;;;7384463;19;20148;-74
2023/04/06 10:52:06;;;;;;;7.80;5.63;;;15.10;1.00;15.40;94132.00;;;;7385586;19;20231;-73
2023/04/06 10:54:48;;;;;;;7.88;6.05;;;14.90;1.00;15.80;94122.00;;;;7385114;19;20180;-73
2023/04/06 10:57:36;;;;;;;7.10;5.63;;;14.60;1.00;15.50;94116.00;;;;7384377;19;20147;-73
2023/04/06 11:00:08;;;;;;;6.75;5.18;;;14.40;1.00;15.60;94093.00;;;;7385426;19;20144;-73
2023/04/06 11:02:49;;;;;;;5.43;4.93;;;14.80;1.00;16.50;94075.00;;;;7387457;19;20172;-74
2023/04/06 11:05:23;;;;;;;6.35;5.15;;;15.30;1.00;17.60;94103.00;;;;7383354;19;20667;-73
2023/04/06 11:07:57;;;;;;;7.00;5.70;;;15.70;1.00;17.30;94094.00;;;;7386410;19;20149;-74
2023/04/06 11:10:31;;;;;;;5.95;5.00;;;16.00;1.00;18.10;94075.00;;;;7385512;19;20152;-74
2023/04/06 11:13:07;;;;;;;7.30;5.63;;;16.30;1.00;17.90;94097.00;;;;7383065;19;20143;-74
2023/04/06 11:15:42;;;;;;;8.38;5.75;;;15.60;1.00;16.80;94073.00;;;;7387337;19;20149;-74
2023/04/06 11:18:18;;;;;;;6.65;5.25;;;15.50;1.00;16.90;94064.00;;;;7386316;19;20167;-73
2023/04/06 11:20:49;;;;;;;6.80;5.45;;;15.60;1.00;17.70;94084.00;;;;7384843;19;20137;-73
2023/04/06 11:23:26;;;;;;;5.38;4.80;;;15.90;1.00;17.30;94063.00;;;;7387244;19;20127;-74
2023/04/06 11:25:54;;;;;;;9.00;6.30;;;15.80;1.00;18.20;94069.00;;;;7385984;19;20608;-73
2023/04/06 11:28:30;;;;;;;7.93;5.47;;;15.80;1.00;18.00;94088.00;;;;7385971;19;20148;-73
2023/04/06 11:31:05;;;;;;;8.02;5.72;;;16.10;1.00;18.10;94070.00;;;;7385306;19;20162;-72